createdAt,value
2017-01-06T10:30:39.331Z,19776
2017-01-06T10:31:38.602Z,20000
2017-01-06T10:32:39.120Z,19968
2017-01-06T10:33:38.920Z,19136
2017-01-06T10:34:39.520Z,18432
2017-01-06T10:35:38.090Z,18464
2017-01-06T10:36:39.123Z,18752
2017-01-06T10:37:38.748Z,18080
2017-01-06T10:38:40.069Z,13540
2017-01-06T10:39:39.037Z,14944
2017-01-06T10:40:38.796Z,13760
2017-01-06T10:41:39.721Z,12476
2017-01-06T10:42:39.596Z,15328
2017-01-06T10:43:39.335Z,15328
2017-01-06T10:44:38.310Z,18688
2017-01-06T10:45:39.099Z,16384
2017-01-06T10:46:39.223Z,11872
2017-01-06T10:47:38.821Z,10912
2017-01-06T10:48:39.535Z,10576
2017-01-06T10:49:38.980Z,10684
2017-01-06T10:50:38.821Z,10836
2017-01-06T10:51:38.382Z,11912
2017-01-06T10:52:39.060Z,12472
2017-01-06T10:53:38.698Z,12024
2017-01-06T10:54:39.119Z,11572
2017-01-06T10:55:38.668Z,11752
2017-01-06T10:56:39.107Z,13280
2017-01-06T10:57:38.581Z,14080
2017-01-06T10:58:39.096Z,13792
2017-01-06T10:59:38.968Z,14176
2017-01-06T11:00:39.125Z,14752
2017-01-06T11:01:38.525Z,16576
2017-01-06T11:02:39.082Z,15456
2017-01-06T11:03:38.356Z,13536
2017-01-06T11:04:38.054Z,12272
2017-01-06T11:05:38.186Z,12664
2017-01-06T11:06:38.902Z,12280
2017-01-06T11:07:38.060Z,11992
2017-01-06T11:08:38.406Z,11764
2017-01-06T11:09:39.128Z,11980
2017-01-06T11:10:38.808Z,11944
2017-01-06T11:11:39.251Z,12216
2017-01-06T11:12:38.998Z,12240
2017-01-06T11:13:39.312Z,11856
2017-01-06T11:14:39.288Z,12708
2017-01-06T11:15:38.310Z,13888
2017-01-06T11:16:37.959Z,14464
2017-01-06T11:17:38.248Z,14496
2017-01-06T11:18:38.625Z,14400
2017-01-06T11:19:38.886Z,11252
2017-01-06T11:20:38.235Z,8644
2017-01-06T11:21:38.528Z,13824
2017-01-06T11:22:38.304Z,12764
2017-01-06T11:23:38.354Z,12328
2017-01-06T11:24:37.304Z,11300
2017-01-06T11:25:38.749Z,9436
2017-01-06T11:26:38.593Z,8212
2017-01-06T11:27:38.254Z,9460
2017-01-06T11:28:37.944Z,9488
2017-01-06T11:29:38.082Z,9308
2017-01-06T11:30:38.741Z,10036
2017-01-06T11:31:37.658Z,10512
2017-01-06T11:32:37.717Z,11108
2017-01-06T11:33:37.525Z,10344
2017-01-06T11:34:38.183Z,9772
2017-01-06T11:35:38.535Z,9824
2017-01-06T11:36:38.301Z,9644
2017-01-06T11:37:37.431Z,9440
2017-01-06T11:38:38.312Z,7516
2017-01-06T11:39:37.789Z,6932
2017-01-06T11:40:37.704Z,7344
2017-01-06T11:41:37.775Z,8216
2017-01-06T11:42:38.715Z,9452
2017-01-06T11:43:37.313Z,10220
2017-01-06T11:44:37.663Z,10764
2017-01-06T11:45:38.033Z,10888
2017-01-06T11:46:36.649Z,11212
2017-01-06T11:47:38.313Z,11452
2017-01-06T11:48:37.466Z,10668
2017-01-06T11:49:38.581Z,9868
2017-01-06T11:50:38.057Z,8104
2017-01-06T11:51:37.132Z,6336
2017-01-06T11:52:38.371Z,9888
2017-01-06T11:53:37.408Z,10588
2017-01-06T11:54:38.091Z,9920
2017-01-06T11:55:38.098Z,9508
2017-01-06T11:56:38.067Z,9812
2017-01-06T11:57:37.096Z,9612
2017-01-06T11:58:37.524Z,7496
2017-01-06T11:59:37.674Z,8224
2017-01-06T12:00:37.734Z,9656
2017-01-06T12:01:37.621Z,11412
2017-01-06T12:02:38.273Z,12440
2017-01-06T12:03:37.148Z,11504
2017-01-06T12:04:37.588Z,12272
2017-01-06T12:05:36.905Z,13036
2017-01-06T12:06:37.459Z,13116
2017-01-06T12:07:37.496Z,12440
2017-01-06T12:08:37.846Z,12092
2017-01-06T12:09:36.653Z,12344
2017-01-06T12:10:36.804Z,10740
2017-01-06T12:11:37.958Z,8096
2017-01-06T12:12:37.010Z,6596
2017-01-06T12:13:38.006Z,7684
2017-01-06T12:14:36.723Z,6800
2017-01-06T12:15:36.692Z,6448
2017-01-06T12:16:36.984Z,6556
2017-01-06T12:17:36.997Z,6352
2017-01-06T12:18:36.940Z,5784
2017-01-06T12:19:37.831Z,5060
2017-01-06T12:20:36.730Z,4868
2017-01-06T12:21:36.730Z,4608
2017-01-06T12:22:36.846Z,4732
2017-01-06T12:23:36.192Z,4708
2017-01-06T12:24:36.379Z,5260
2017-01-06T12:25:37.668Z,5416
2017-01-06T12:26:37.097Z,5084
2017-01-06T12:27:35.600Z,4812
2017-01-06T12:28:36.635Z,5340
2017-01-06T12:29:36.696Z,5732
2017-01-06T12:30:36.245Z,5280
2017-01-06T12:31:37.704Z,5452
2017-01-06T12:32:36.522Z,9860
2017-01-06T12:33:36.088Z,7840
2017-01-06T12:34:36.583Z,5136
2017-01-06T12:35:36.794Z,8200
2017-01-06T12:36:36.503Z,15040
2017-01-06T12:37:36.812Z,13560
2017-01-06T12:38:36.139Z,14016
2017-01-06T12:39:36.529Z,12912
2017-01-06T12:40:35.787Z,11520
2017-01-06T12:41:35.648Z,10876
2017-01-06T12:42:36.869Z,9296
2017-01-06T12:43:35.267Z,8488
2017-01-06T12:44:36.960Z,7680
2017-01-06T12:45:36.818Z,6736
2017-01-06T12:46:35.525Z,6712
2017-01-06T12:47:35.852Z,7560
2017-01-06T12:48:36.267Z,7744
2017-01-06T12:49:36.881Z,7300
2017-01-06T12:50:36.404Z,6736
2017-01-06T12:51:36.170Z,5484
2017-01-06T12:52:35.389Z,6608
2017-01-06T12:53:35.663Z,7140
2017-01-06T12:54:36.394Z,5996
2017-01-06T12:55:36.287Z,5768
2017-01-06T12:56:35.042Z,5728
2017-01-06T12:57:36.292Z,5096
2017-01-06T12:58:36.957Z,4612
2017-01-06T12:59:35.940Z,5260
2017-01-06T13:00:35.171Z,6484
2017-01-06T13:01:35.884Z,6584
2017-01-06T13:02:36.482Z,6864
2017-01-06T13:03:36.816Z,6624
2017-01-06T13:04:35.815Z,5848
2017-01-06T13:05:35.426Z,5092
2017-01-06T13:06:36.073Z,4448
2017-01-06T13:07:36.533Z,4440
2017-01-06T13:08:36.052Z,5412
2017-01-06T13:09:35.900Z,6728
2017-01-06T13:10:34.684Z,7552
2017-01-06T13:11:35.683Z,7412
2017-01-06T13:12:36.591Z,7840
2017-01-06T13:13:35.652Z,7748
2017-01-06T13:14:35.382Z,7840
2017-01-06T13:15:35.911Z,7576
2017-01-06T13:16:35.486Z,7200
2017-01-06T13:17:35.513Z,8508
2017-01-06T13:18:35.780Z,10664
2017-01-06T13:19:35.800Z,11312
2017-01-06T13:20:36.378Z,11440
2017-01-06T13:21:35.928Z,11468
2017-01-06T13:22:35.004Z,11608
2017-01-06T13:23:35.317Z,11584
2017-01-06T13:24:35.466Z,11376
2017-01-06T13:25:35.646Z,11252
2017-01-06T13:26:34.265Z,11136
2017-01-06T13:27:35.495Z,10844
2017-01-06T13:28:35.844Z,10940
2017-01-06T13:29:35.483Z,11504
2017-01-06T13:30:35.132Z,10828
2017-01-06T13:31:34.842Z,10548
2017-01-06T13:32:35.063Z,11028
2017-01-06T13:33:35.373Z,11400
2017-01-06T13:34:35.260Z,11020
2017-01-06T13:35:35.312Z,9308
2017-01-06T13:36:35.302Z,8880
2017-01-06T13:37:35.196Z,9356
2017-01-06T13:38:34.897Z,10892
2017-01-06T13:39:35.288Z,11308
2017-01-06T13:40:34.446Z,9320
2017-01-06T13:41:35.143Z,10700
2017-01-06T13:42:35.587Z,9628
2017-01-06T13:43:34.777Z,8144
2017-01-06T13:44:35.760Z,7224
2017-01-06T13:45:35.033Z,6764
2017-01-06T13:46:35.241Z,7316
2017-01-06T13:47:34.940Z,7780
2017-01-06T13:48:34.191Z,7176
2017-01-06T13:49:34.570Z,7820
2017-01-06T13:50:34.670Z,7408
2017-01-06T13:51:34.769Z,6536
2017-01-06T13:52:35.074Z,6976
2017-01-06T13:53:33.497Z,7948
2017-01-06T13:54:34.510Z,7688
2017-01-06T13:55:34.716Z,8332
2017-01-06T13:56:34.834Z,8440
2017-01-06T13:57:33.432Z,7736
2017-01-06T13:58:34.724Z,7632
2017-01-06T13:59:34.073Z,7780
2017-01-06T14:00:34.587Z,7496
2017-01-06T14:01:33.936Z,6280
2017-01-06T14:02:34.152Z,5616
2017-01-06T14:03:33.652Z,5472
2017-01-06T14:04:34.831Z,5296
2017-01-06T14:05:33.850Z,5108
2017-01-06T14:06:33.971Z,5228
2017-01-06T14:07:34.060Z,5376
2017-01-06T14:08:33.789Z,5296
2017-01-06T14:09:34.488Z,5180
2017-01-06T14:10:33.918Z,5132
2017-01-06T14:11:33.890Z,4864
2017-01-06T14:12:34.687Z,4712
2017-01-06T14:13:34.338Z,4660
2017-01-06T14:14:33.917Z,4464
2017-01-06T14:15:34.264Z,4088
2017-01-06T14:16:34.448Z,3868
2017-01-06T14:17:33.859Z,3720
2017-01-06T14:18:34.148Z,3484
2017-01-06T14:19:34.461Z,3224
2017-01-06T14:20:34.423Z,3020
2017-01-06T14:21:34.044Z,2920
2017-01-06T14:22:34.768Z,2820
2017-01-06T14:23:33.719Z,2724
2017-01-06T14:24:33.018Z,2572
2017-01-06T14:25:33.879Z,2464
2017-01-06T14:26:34.629Z,2360
2017-01-06T14:27:33.400Z,2288
2017-01-06T14:28:33.928Z,2228
2017-01-06T14:29:33.577Z,2172
2017-01-06T14:30:33.736Z,2100
2017-01-06T14:31:33.847Z,2060
2017-01-06T14:32:34.325Z,1996
2017-01-06T14:33:34.434Z,1944
2017-01-06T14:34:33.095Z,1836
2017-01-06T14:35:33.401Z,1736
2017-01-06T14:36:33.116Z,1656
2017-01-06T14:37:33.987Z,1600
2017-01-06T14:38:33.660Z,1552
2017-01-06T14:39:33.491Z,1492
2017-01-06T14:40:33.243Z,1440
2017-01-06T14:41:33.563Z,1384
2017-01-06T14:42:33.144Z,1344
2017-01-06T14:43:33.861Z,1304
2017-01-06T14:44:33.310Z,1268
2017-01-06T14:45:33.459Z,1240
2017-01-06T14:46:32.445Z,1216
2017-01-06T14:47:33.410Z,1176
2017-01-06T14:48:33.119Z,1140
2017-01-06T14:49:33.677Z,1112
2017-01-06T14:50:33.257Z,1084
2017-01-06T14:51:33.620Z,1056
2017-01-06T14:52:33.788Z,1012
2017-01-06T14:53:33.267Z,980
2017-01-06T14:54:33.517Z,932
2017-01-06T14:55:33.514Z,912
2017-01-06T14:56:33.174Z,820
2017-01-06T14:57:33.475Z,800
2017-01-06T14:58:33.753Z,792
2017-01-06T14:59:33.783Z,792
2017-01-06T15:00:32.682Z,776
2017-01-06T15:01:32.349Z,752
2017-01-06T15:02:32.990Z,728
2017-01-06T15:03:33.301Z,696
2017-01-06T15:04:32.594Z,664
2017-01-06T15:05:32.867Z,644
2017-01-06T15:06:33.214Z,628
2017-01-06T15:07:32.928Z,612
2017-01-06T15:08:32.186Z,588
2017-01-06T15:09:32.690Z,560
2017-01-06T15:10:32.653Z,536
2017-01-06T15:11:32.425Z,520
2017-01-06T15:12:31.980Z,504
2017-01-06T15:13:32.195Z,480
2017-01-06T15:14:31.923Z,460
2017-01-06T15:15:32.993Z,436
2017-01-06T15:16:32.947Z,416
2017-01-06T15:17:33.222Z,392
2017-01-06T15:18:33.062Z,372
2017-01-06T15:19:31.821Z,348
2017-01-06T15:20:32.004Z,332
2017-01-06T15:21:32.480Z,316
2017-01-06T15:22:32.438Z,300
2017-01-06T15:23:32.716Z,284
2017-01-06T15:24:32.357Z,268
2017-01-06T15:25:31.260Z,252
2017-01-06T15:26:31.167Z,240
2017-01-06T15:27:31.535Z,224
2017-01-06T15:28:32.916Z,212
2017-01-06T15:29:31.935Z,200
2017-01-06T15:30:32.191Z,184
2017-01-06T15:31:32.479Z,172
2017-01-06T15:32:31.999Z,160
2017-01-06T15:33:31.822Z,148
2017-01-06T15:34:31.788Z,136
2017-01-06T15:35:32.071Z,124
2017-01-06T15:36:31.281Z,120
2017-01-06T15:37:31.776Z,108
2017-01-06T15:38:31.954Z,100
2017-01-06T15:39:31.905Z,88
2017-01-06T15:40:31.920Z,80
2017-01-06T15:41:32.194Z,76
2017-01-06T15:42:32.050Z,68
2017-01-06T15:43:31.247Z,60
2017-01-06T15:44:32.543Z,56
2017-01-06T15:45:32.083Z,48
2017-01-06T15:46:32.455Z,44
2017-01-06T15:47:31.742Z,40
2017-01-06T15:48:31.062Z,36
2017-01-06T15:49:31.955Z,28
2017-01-06T15:50:31.925Z,28
2017-01-06T15:51:30.778Z,24
2017-01-06T15:52:30.578Z,20
2017-01-06T15:53:31.571Z,16
2017-01-06T15:54:30.849Z,16
2017-01-06T15:55:31.492Z,12
2017-01-06T15:56:31.026Z,12
2017-01-06T15:57:31.020Z,12
2017-01-06T15:58:32.169Z,8
2017-01-06T15:59:31.903Z,8
2017-01-06T16:00:31.028Z,8
2017-01-06T16:01:31.649Z,8
2017-01-06T16:02:30.857Z,4
2017-01-06T16:03:31.926Z,8
2017-01-06T16:04:31.140Z,4
2017-01-06T16:05:30.787Z,8
2017-01-06T16:06:31.065Z,4
2017-01-06T16:07:30.553Z,4
2017-01-06T16:08:30.920Z,4
2017-01-06T16:09:30.354Z,0
2017-01-06T16:10:30.011Z,0
2017-01-06T16:11:30.371Z,4
2017-01-06T16:12:30.953Z,4
2017-01-06T16:13:30.240Z,4
2017-01-06T16:14:31.317Z,4
2017-01-06T16:15:30.590Z,4
2017-01-06T16:16:30.889Z,4
2017-01-06T16:17:31.517Z,4
2017-01-06T16:18:31.153Z,4
2017-01-06T16:19:30.400Z,4
2017-01-06T16:20:29.440Z,0
2017-01-06T16:21:30.018Z,0
2017-01-06T16:22:31.078Z,0
2017-01-06T16:23:30.999Z,0
2017-01-06T16:24:31.052Z,0
2017-01-06T16:25:30.636Z,0
2017-01-06T16:26:31.263Z,0
2017-01-06T16:27:31.255Z,0
2017-01-06T16:28:29.889Z,0
2017-01-06T16:29:30.433Z,0
2017-01-06T16:30:30.679Z,0
2017-01-06T16:31:30.334Z,0
2017-01-06T16:32:30.501Z,0
2017-01-06T16:33:30.174Z,0
2017-01-06T16:34:29.688Z,0
2017-01-06T16:35:31.122Z,0
2017-01-06T16:36:30.818Z,0
2017-01-06T16:37:30.939Z,0
2017-01-06T16:38:30.929Z,0
2017-01-06T16:39:29.888Z,0
2017-01-06T16:40:29.764Z,0
2017-01-06T16:41:30.469Z,0
2017-01-06T16:42:30.499Z,0
2017-01-06T16:43:29.449Z,0
2017-01-06T16:44:29.341Z,0
2017-01-06T16:45:30.759Z,0
2017-01-06T16:46:29.947Z,0
2017-01-06T16:47:29.276Z,0
2017-01-06T16:48:29.877Z,0
2017-01-06T16:49:29.778Z,0
2017-01-06T16:50:29.496Z,0
2017-01-06T16:51:30.614Z,0
2017-01-06T16:52:28.790Z,0
2017-01-06T16:53:30.497Z,0
2017-01-06T16:54:29.075Z,0
2017-01-06T16:55:29.803Z,0
2017-01-06T16:56:29.332Z,0
2017-01-06T16:57:29.705Z,0
2017-01-06T16:58:29.070Z,0
2017-01-06T16:59:29.064Z,0
2017-01-06T17:00:29.510Z,0
2017-01-06T17:01:30.287Z,0
2017-01-06T17:02:29.022Z,0
2017-01-06T17:03:29.253Z,0
2017-01-06T17:04:28.667Z,0
2017-01-06T17:05:29.118Z,0
2017-01-06T17:06:29.452Z,0
2017-01-06T17:07:29.087Z,0
2017-01-06T17:08:28.836Z,0
2017-01-06T17:09:29.229Z,0
2017-01-06T17:10:29.727Z,0
2017-01-06T17:11:29.161Z,0
2017-01-06T17:12:29.967Z,0
2017-01-06T17:13:29.246Z,0
2017-01-06T17:14:29.239Z,0
2017-01-06T17:15:29.192Z,0
2017-01-06T17:16:29.822Z,0
2017-01-06T17:17:28.817Z,0
2017-01-06T17:18:29.451Z,0
2017-01-06T17:19:29.432Z,0
2017-01-06T17:20:28.755Z,0
2017-01-06T17:21:28.887Z,0
2017-01-06T17:22:28.449Z,0
2017-01-06T17:23:28.611Z,0
2017-01-06T17:24:28.968Z,0
2017-01-06T17:25:28.133Z,0
2017-01-06T17:26:29.187Z,0
2017-01-06T17:27:29.186Z,0
2017-01-06T17:28:28.181Z,0
2017-01-06T17:29:28.151Z,0
2017-01-06T17:30:29.497Z,0
2017-01-06T17:31:28.887Z,0
2017-01-06T17:32:28.329Z,0
2017-01-06T17:33:28.713Z,0
2017-01-06T17:34:27.933Z,0
2017-01-06T17:35:28.632Z,0
2017-01-06T17:36:27.790Z,0
2017-01-06T17:37:28.567Z,0
2017-01-06T17:38:28.569Z,0
2017-01-06T17:39:28.361Z,0
2017-01-06T17:40:28.780Z,0
2017-01-06T17:41:27.761Z,0
2017-01-06T17:42:27.577Z,0
2017-01-06T17:43:28.716Z,0
2017-01-06T17:44:28.774Z,0
2017-01-06T17:45:28.308Z,0
2017-01-06T17:46:28.024Z,0
2017-01-06T17:47:27.603Z,0
2017-01-06T17:48:27.827Z,0
2017-01-06T17:49:27.211Z,0
2017-01-06T17:50:27.852Z,0
2017-01-06T17:51:27.799Z,0
2017-01-06T17:52:28.630Z,0
2017-01-06T17:53:27.389Z,0
2017-01-06T17:54:26.746Z,0
2017-01-06T17:55:28.584Z,0
2017-01-06T17:56:28.179Z,0
2017-01-06T17:57:27.219Z,0
2017-01-06T17:58:27.704Z,0
2017-01-06T17:59:28.247Z,0
2017-01-06T18:00:28.218Z,0
2017-01-06T18:01:27.544Z,0
2017-01-06T18:02:28.172Z,0
2017-01-06T18:03:28.128Z,0
2017-01-06T18:04:27.616Z,0
2017-01-06T18:05:27.712Z,0
2017-01-06T18:06:26.727Z,0
2017-01-06T18:07:26.938Z,0
2017-01-06T18:08:27.267Z,0
2017-01-06T18:09:27.636Z,0
2017-01-06T18:10:26.300Z,0
2017-01-06T18:11:28.076Z,0
2017-01-06T18:12:27.575Z,0
2017-01-06T18:13:26.850Z,0
2017-01-06T18:14:27.073Z,0
2017-01-06T18:15:27.048Z,0
2017-01-06T18:16:26.619Z,0
2017-01-06T18:17:27.292Z,0
2017-01-06T18:18:27.671Z,0
2017-01-06T18:19:27.245Z,0
2017-01-06T18:20:26.589Z,0
2017-01-06T18:21:26.614Z,0
2017-01-06T18:22:26.778Z,0
2017-01-06T18:23:26.880Z,0
2017-01-06T18:24:27.847Z,0
2017-01-06T18:25:27.476Z,0
2017-01-06T18:26:27.154Z,0
2017-01-06T18:27:27.125Z,0
2017-01-06T18:28:27.378Z,0
2017-01-06T18:29:27.046Z,0
2017-01-06T18:30:27.673Z,0
2017-01-06T18:31:26.649Z,0
2017-01-06T18:32:26.944Z,0
2017-01-06T18:33:27.613Z,0
2017-01-06T18:34:26.905Z,0
2017-01-06T18:35:26.810Z,0
2017-01-06T18:36:27.158Z,0
2017-01-06T18:37:27.121Z,0
2017-01-06T18:38:27.139Z,0
2017-01-06T18:39:27.059Z,0
2017-01-06T18:40:25.772Z,0
2017-01-06T18:41:25.889Z,0
2017-01-06T18:42:26.834Z,0
2017-01-06T18:43:26.097Z,0
2017-01-06T18:44:26.588Z,0
2017-01-06T18:45:26.895Z,0
2017-01-06T18:46:26.427Z,0
2017-01-06T18:47:25.830Z,0
2017-01-06T18:48:26.406Z,0
2017-01-06T18:49:26.105Z,0
2017-01-06T18:50:27.096Z,0
2017-01-06T18:51:26.039Z,0
2017-01-06T18:52:26.533Z,0
2017-01-06T18:53:25.924Z,0
2017-01-06T18:54:25.971Z,0
2017-01-06T18:55:26.345Z,0
2017-01-06T18:56:26.199Z,0
2017-01-06T18:57:25.576Z,0
2017-01-06T18:58:25.417Z,0
2017-01-06T18:59:25.692Z,0
2017-01-06T19:00:26.833Z,0
2017-01-06T19:01:25.438Z,0
2017-01-06T19:02:25.718Z,0
2017-01-06T19:03:26.049Z,0
2017-01-06T19:04:24.957Z,0
2017-01-06T19:05:25.258Z,0
2017-01-06T19:06:25.635Z,0
2017-01-06T19:07:26.225Z,0
2017-01-06T19:08:26.408Z,0
2017-01-06T19:09:25.664Z,0
2017-01-06T19:10:25.155Z,0
2017-01-06T19:11:25.483Z,0
2017-01-06T19:12:25.494Z,0
2017-01-06T19:13:26.302Z,0
2017-01-06T19:14:25.651Z,0
2017-01-06T19:15:26.022Z,0
2017-01-06T19:16:25.455Z,0
2017-01-06T19:17:26.050Z,0
2017-01-06T19:18:25.935Z,0
2017-01-06T19:19:24.087Z,0
2017-01-06T19:20:25.572Z,0
2017-01-06T19:21:25.518Z,0
2017-01-06T19:22:24.741Z,0
2017-01-06T19:23:26.001Z,0
2017-01-06T19:24:24.775Z,0
2017-01-06T19:25:25.743Z,0
2017-01-06T19:26:25.019Z,0
2017-01-06T19:27:24.593Z,0
2017-01-06T19:28:24.014Z,0
2017-01-06T19:29:24.844Z,0
2017-01-06T19:30:24.106Z,0
2017-01-06T19:31:24.551Z,0
2017-01-06T19:32:24.962Z,0
2017-01-06T19:33:25.353Z,0
2017-01-06T19:34:24.989Z,0
2017-01-06T19:35:24.685Z,0
2017-01-06T19:36:25.171Z,0
2017-01-06T19:37:24.618Z,0
2017-01-06T19:38:24.362Z,0
2017-01-06T19:39:23.936Z,0
2017-01-06T19:40:24.149Z,0
2017-01-06T19:41:25.268Z,0
2017-01-06T19:42:25.606Z,0
2017-01-06T19:43:24.577Z,0
2017-01-06T19:44:24.704Z,0
2017-01-06T19:45:25.104Z,0
2017-01-06T19:46:25.312Z,0
2017-01-06T19:47:24.920Z,0
2017-01-06T19:48:24.351Z,0
2017-01-06T19:49:24.343Z,0
2017-01-06T19:50:24.762Z,0
2017-01-06T19:51:24.653Z,0
2017-01-06T19:52:24.624Z,0
2017-01-06T19:53:24.579Z,0
2017-01-06T19:54:25.055Z,0
2017-01-06T19:55:25.206Z,0
2017-01-06T19:56:24.502Z,0
2017-01-06T19:57:23.847Z,0
2017-01-06T19:58:23.811Z,0
2017-01-06T19:59:24.920Z,0
2017-01-06T20:00:23.802Z,0
2017-01-06T20:01:24.234Z,0
2017-01-06T20:02:24.025Z,0
2017-01-06T20:03:24.857Z,0
2017-01-06T20:04:23.258Z,0
2017-01-06T20:05:23.810Z,0
2017-01-06T20:06:24.060Z,0
2017-01-06T20:07:24.159Z,0
2017-01-06T20:08:25.394Z,0
2017-01-06T20:09:24.087Z,0
2017-01-06T20:10:24.099Z,0
2017-01-06T20:11:25.290Z,0
2017-01-06T20:12:24.496Z,0
2017-01-06T20:13:24.230Z,0
2017-01-06T20:14:24.207Z,0
2017-01-06T20:15:22.931Z,0
2017-01-06T20:16:23.579Z,0
2017-01-06T20:17:24.258Z,0
2017-01-06T20:18:23.858Z,0
2017-01-06T20:19:23.453Z,0
2017-01-06T20:20:24.634Z,0
2017-01-06T20:21:24.115Z,0
2017-01-06T20:22:24.479Z,0
2017-01-06T20:23:24.601Z,0
2017-01-06T20:24:24.932Z,0
2017-01-06T20:25:23.793Z,0
2017-01-06T20:26:24.002Z,0
2017-01-06T20:27:24.166Z,0
2017-01-06T20:28:24.059Z,0
2017-01-06T20:29:24.677Z,0
2017-01-06T20:30:24.331Z,0
2017-01-06T20:31:22.857Z,0
2017-01-06T20:32:23.898Z,0
2017-01-06T20:33:24.526Z,0
2017-01-06T20:34:24.558Z,0
2017-01-06T20:35:24.876Z,0
2017-01-06T20:36:23.743Z,0
2017-01-06T20:37:23.974Z,0
2017-01-06T20:38:22.643Z,0
2017-01-06T20:39:23.764Z,0
2017-01-06T20:40:24.141Z,0
2017-01-06T20:41:23.246Z,0
2017-01-06T20:42:23.651Z,0
2017-01-06T20:43:23.941Z,0
2017-01-06T20:44:23.731Z,0
2017-01-06T20:45:23.469Z,0
2017-01-06T20:46:23.635Z,0
2017-01-06T20:47:23.611Z,0
2017-01-06T20:48:23.259Z,0
2017-01-06T20:49:23.589Z,0
2017-01-06T20:50:23.878Z,0
2017-01-06T20:51:24.135Z,0
2017-01-06T20:52:23.357Z,0
2017-01-06T20:53:23.538Z,0
2017-01-06T20:54:22.916Z,0
2017-01-06T20:55:23.687Z,0
2017-01-06T20:56:22.924Z,0
2017-01-06T20:57:23.144Z,0
2017-01-06T20:58:23.074Z,0
2017-01-06T20:59:22.748Z,0
2017-01-06T21:00:22.660Z,0
2017-01-06T21:01:23.382Z,0
2017-01-06T21:02:22.510Z,0
2017-01-06T21:03:23.300Z,0
2017-01-06T21:04:22.539Z,0
2017-01-06T21:05:22.245Z,0
2017-01-06T21:06:21.637Z,0
2017-01-06T21:07:22.369Z,0
2017-01-06T21:08:22.029Z,0
2017-01-06T21:09:21.930Z,0
2017-01-06T21:10:21.970Z,0
2017-01-06T21:11:22.066Z,0
2017-01-06T21:12:21.995Z,0
2017-01-06T21:13:22.633Z,0
2017-01-06T21:14:21.891Z,0
2017-01-06T21:15:22.149Z,0
2017-01-06T21:16:22.443Z,0
2017-01-06T21:17:22.803Z,0
2017-01-06T21:18:22.060Z,0
2017-01-06T21:19:23.070Z,0
2017-01-06T21:20:22.922Z,0
2017-01-06T21:21:22.462Z,0
2017-01-06T21:22:22.117Z,0
2017-01-06T21:23:23.079Z,0
2017-01-06T21:24:22.757Z,0
2017-01-06T21:25:22.527Z,0
2017-01-06T21:26:21.929Z,0
2017-01-06T21:27:22.408Z,0
2017-01-06T21:28:21.876Z,0
2017-01-06T21:29:21.665Z,0
2017-01-06T21:30:21.977Z,0
2017-01-06T21:31:21.962Z,0
2017-01-06T21:32:22.424Z,0
2017-01-06T21:33:22.113Z,0
2017-01-06T21:34:22.008Z,0
2017-01-06T21:35:21.476Z,0
2017-01-06T21:36:22.025Z,0
2017-01-06T21:37:21.961Z,0
2017-01-06T21:38:22.138Z,0
2017-01-06T21:39:20.608Z,0
2017-01-06T21:40:21.441Z,0
2017-01-06T21:41:21.919Z,0
2017-01-06T21:42:21.138Z,0
2017-01-06T21:43:21.698Z,0
2017-01-06T21:44:21.710Z,0
2017-01-06T21:45:22.073Z,0
2017-01-06T21:46:21.750Z,0
2017-01-06T21:47:21.370Z,0
2017-01-06T21:48:21.274Z,0
2017-01-06T21:49:21.335Z,0
2017-01-06T21:50:20.487Z,0
2017-01-06T21:51:21.464Z,0
2017-01-06T21:52:21.102Z,0
2017-01-06T21:53:21.145Z,0
2017-01-06T21:54:19.911Z,0
2017-01-06T21:55:21.132Z,0
2017-01-06T21:56:20.187Z,0
2017-01-06T21:57:20.910Z,0
2017-01-06T21:58:21.066Z,0
2017-01-06T21:59:21.151Z,0
2017-01-06T22:00:20.788Z,0
2017-01-06T22:01:20.800Z,0
2017-01-06T22:02:21.106Z,0
2017-01-06T22:03:20.737Z,0
2017-01-06T22:04:21.306Z,0
2017-01-06T22:05:21.327Z,0
2017-01-06T22:06:21.085Z,0
2017-01-06T22:07:20.229Z,0
2017-01-06T22:08:19.647Z,0
2017-01-06T22:09:21.164Z,0
2017-01-06T22:10:20.470Z,0
2017-01-06T22:11:20.100Z,0
2017-01-06T22:12:19.686Z,0
2017-01-06T22:13:20.292Z,0
2017-01-06T22:14:20.218Z,0
2017-01-06T22:15:19.981Z,0
2017-01-06T22:16:19.094Z,0
2017-01-06T22:17:20.917Z,0
2017-01-06T22:18:20.228Z,0
2017-01-06T22:19:19.127Z,0
2017-01-06T22:20:19.530Z,0
2017-01-06T22:21:20.828Z,0
2017-01-06T22:22:20.123Z,0
2017-01-06T22:23:20.076Z,0
2017-01-06T22:24:19.418Z,0
2017-01-06T22:25:20.016Z,0
2017-01-06T22:26:18.606Z,0
2017-01-06T22:27:19.495Z,0
2017-01-06T22:28:19.628Z,0
2017-01-06T22:29:19.451Z,0
2017-01-06T22:30:19.654Z,0
2017-01-06T22:31:19.524Z,0
2017-01-06T22:32:19.698Z,0
2017-01-06T22:33:20.433Z,0
2017-01-06T22:34:19.692Z,0
2017-01-06T22:35:19.729Z,0
2017-01-06T22:36:19.139Z,0
2017-01-06T22:37:19.271Z,0
2017-01-06T22:38:19.628Z,0
2017-01-06T22:39:20.290Z,0
2017-01-06T22:40:20.237Z,0
2017-01-06T22:41:19.889Z,0
2017-01-06T22:42:19.838Z,0
2017-01-06T22:43:19.846Z,0
2017-01-06T22:44:19.509Z,0
2017-01-06T22:45:19.795Z,0
2017-01-06T22:46:19.905Z,0
2017-01-06T22:47:20.028Z,0
2017-01-06T22:48:18.659Z,0
2017-01-06T22:49:19.942Z,0
2017-01-06T22:50:19.583Z,0
2017-01-06T22:51:19.013Z,0
2017-01-06T22:52:19.206Z,0
2017-01-06T22:53:19.502Z,0
2017-01-06T22:54:19.470Z,0
2017-01-06T22:55:19.129Z,0
2017-01-06T22:56:18.770Z,0
2017-01-06T22:57:19.767Z,0
2017-01-06T22:58:19.000Z,0
2017-01-06T22:59:18.936Z,0
2017-01-06T23:00:19.201Z,0
2017-01-06T23:01:17.867Z,0
2017-01-06T23:02:18.275Z,0
2017-01-06T23:03:18.880Z,0
2017-01-06T23:04:18.824Z,0
2017-01-06T23:05:19.466Z,0
2017-01-06T23:06:18.705Z,0
2017-01-06T23:07:19.521Z,0
2017-01-06T23:08:17.580Z,0
2017-01-06T23:09:17.982Z,0
2017-01-06T23:10:18.688Z,0
2017-01-06T23:11:18.971Z,0
2017-01-06T23:12:17.889Z,0
2017-01-06T23:13:18.612Z,0
2017-01-06T23:14:18.886Z,0
2017-01-06T23:15:17.669Z,0
2017-01-06T23:16:18.061Z,0
2017-01-06T23:17:18.487Z,0
2017-01-06T23:18:18.098Z,0
2017-01-06T23:19:18.336Z,0
2017-01-06T23:20:17.726Z,0
2017-01-06T23:21:18.035Z,0
2017-01-06T23:22:17.918Z,0
2017-01-06T23:23:18.385Z,0
2017-01-06T23:24:18.562Z,0
2017-01-06T23:25:17.637Z,0
2017-01-06T23:26:18.043Z,0
2017-01-06T23:27:17.741Z,0
2017-01-06T23:28:18.462Z,0
2017-01-06T23:29:18.430Z,0
2017-01-06T23:30:18.630Z,0
2017-01-06T23:31:18.688Z,0
2017-01-06T23:32:17.999Z,0
2017-01-06T23:33:17.971Z,0
2017-01-06T23:34:18.608Z,0
2017-01-06T23:35:16.906Z,0
2017-01-06T23:36:17.667Z,0
2017-01-06T23:37:17.153Z,0
2017-01-06T23:38:17.001Z,0
2017-01-06T23:39:16.712Z,0
2017-01-06T23:40:17.635Z,0
2017-01-06T23:41:17.587Z,0
2017-01-06T23:42:17.734Z,0
2017-01-06T23:43:17.691Z,0
2017-01-06T23:44:16.572Z,0
2017-01-06T23:45:17.628Z,0
2017-01-06T23:46:16.613Z,0
2017-01-06T23:47:16.584Z,0
2017-01-06T23:48:16.760Z,0
2017-01-06T23:49:17.980Z,0
2017-01-06T23:50:16.793Z,0
2017-01-06T23:51:16.766Z,0
2017-01-06T23:52:18.029Z,0
2017-01-06T23:53:17.358Z,0
2017-01-06T23:54:16.934Z,0
2017-01-06T23:55:17.342Z,0
2017-01-06T23:56:17.615Z,0
2017-01-06T23:57:17.272Z,0
2017-01-06T23:58:16.545Z,0
2017-01-06T23:59:16.984Z,0
